createdAt,value
2023-04-15T17:11:22.139Z,35.92
2023-04-15T17:13:51.551Z,35.83
2023-04-15T17:16:21.021Z,35.80
2023-04-15T17:18:51.245Z,35.79
2023-04-15T17:21:20.558Z,35.70
2023-04-15T17:23:52.670Z,35.58
2023-04-15T17:26:32.807Z,35.50
2023-04-15T17:29:03.128Z,35.52
2023-04-15T17:31:33.447Z,35.50
2023-04-15T17:34:09.383Z,35.57
2023-04-15T17:36:40.011Z,35.59
2023-04-15T17:39:10.365Z,35.63
2023-04-15T17:41:40.051Z,35.65
2023-04-15T17:44:09.548Z,35.83
2023-04-15T17:46:40.012Z,35.91
2023-04-15T17:49:10.503Z,35.92
2023-04-15T17:51:39.913Z,35.99
2023-04-15T17:54:13.533Z,36.05
2023-04-15T17:56:43.246Z,36.17
2023-04-15T17:59:12.527Z,36.15
2023-04-15T18:01:42.885Z,36.07
2023-04-15T18:04:14.462Z,36.02
2023-04-15T18:06:46.046Z,35.98
2023-04-15T18:09:17.932Z,35.92
2023-04-15T18:11:49.451Z,35.87
2023-04-15T18:14:33.498Z,35.83
2023-04-15T18:17:04.047Z,35.91
2023-04-15T18:19:36.152Z,35.94
2023-04-15T18:22:06.036Z,36.02
2023-04-15T18:24:35.431Z,36.08
2023-04-15T18:27:04.627Z,36.05
2023-04-15T18:29:34.939Z,35.96
2023-04-15T18:32:04.361Z,35.97
2023-04-15T18:34:36.614Z,35.95
2023-04-15T18:37:05.813Z,36.04
2023-04-15T18:39:37.990Z,36.13
2023-04-15T18:42:09.562Z,36.03
2023-04-15T18:44:39.873Z,35.96
2023-04-15T18:47:09.692Z,35.87
2023-04-15T18:49:41.940Z,35.86
2023-04-15T18:52:22.310Z,35.91
2023-04-15T18:54:51.420Z,35.89
2023-04-15T18:57:23.672Z,35.74
2023-04-15T19:00:01.161Z,35.70
2023-04-15T19:02:32.194Z,35.65
2023-04-15T19:05:05.906Z,35.65
2023-04-15T19:07:34.080Z,35.75
2023-04-15T19:10:04.952Z,35.80
2023-04-15T19:12:32.472Z,35.72
2023-04-15T19:15:00.365Z,35.71
2023-04-15T19:17:29.025Z,35.75
2023-04-15T19:19:58.667Z,35.78
2023-04-15T19:22:30.196Z,35.81
2023-04-15T19:25:00.427Z,35.84
2023-04-15T19:27:30.324Z,35.81
2023-04-15T19:30:00.744Z,35.74
2023-04-15T19:32:30.811Z,35.76
2023-04-15T19:34:59.806Z,35.68
2023-04-15T19:37:31.217Z,35.62
2023-04-15T19:40:00.424Z,35.72
2023-04-15T19:42:32.175Z,35.72
2023-04-15T19:45:01.507Z,35.77
2023-04-15T19:47:31.046Z,35.88
2023-04-15T19:50:00.906Z,35.88
2023-04-15T19:52:30.517Z,35.91
2023-04-15T19:54:59.965Z,35.99
2023-04-15T19:57:29.420Z,35.95
2023-04-15T19:59:58.617Z,35.92
2023-04-15T20:02:29.858Z,35.97
2023-04-15T20:04:59.778Z,36.07
2023-04-15T20:07:29.177Z,36.05
2023-04-15T20:09:59.589Z,36.01
2023-04-15T20:12:50.509Z,36.04
2023-04-15T20:15:19.376Z,36.08
2023-04-15T20:17:51.131Z,36.03
2023-04-15T20:20:22.138Z,35.97
2023-04-15T20:22:53.602Z,35.90
2023-04-15T20:25:24.193Z,35.87
2023-04-15T20:27:53.882Z,35.85
2023-04-15T20:30:26.256Z,35.92
2023-04-15T20:32:56.017Z,35.89
2023-04-15T20:35:29.514Z,35.77
2023-04-15T20:37:59.993Z,35.66
2023-04-15T20:40:33.997Z,35.64
2023-04-15T20:43:04.560Z,35.72
2023-04-15T20:45:33.732Z,35.68
2023-04-15T20:48:04.324Z,35.67
2023-04-15T20:50:34.503Z,35.80
2023-04-15T20:53:05.545Z,35.73
2023-04-15T20:55:34.716Z,35.63
2023-04-15T20:58:05.256Z,35.79
2023-04-15T21:00:34.492Z,35.82
2023-04-15T21:03:04.495Z,35.87
2023-04-15T21:05:35.617Z,35.92
2023-04-15T21:08:06.474Z,35.90
2023-04-15T21:10:38.203Z,35.89
2023-04-15T21:13:08.249Z,35.90
2023-04-15T21:15:39.885Z,35.86
2023-04-15T21:18:11.554Z,35.81
2023-04-15T21:20:42.236Z,35.84
2023-04-15T21:23:14.738Z,35.80
2023-04-15T21:25:44.576Z,35.76
2023-04-15T21:28:14.263Z,35.75
2023-04-15T21:30:43.962Z,35.68
2023-04-15T21:33:14.325Z,35.69
2023-04-15T21:35:43.579Z,35.65
2023-04-15T21:38:13.429Z,35.68
2023-04-15T21:40:45.788Z,35.66
2023-04-15T21:43:15.428Z,35.80
2023-04-15T21:46:21.461Z,35.85
2023-04-15T21:48:35.726Z,35.94
2023-04-15T21:51:06.147Z,35.96
2023-04-15T21:53:35.180Z,35.85
2023-04-15T21:56:05.054Z,35.65
2023-04-15T21:58:35.037Z,35.53
2023-04-15T22:01:05.650Z,35.50
2023-04-15T22:03:36.140Z,35.29
2023-04-15T22:06:05.169Z,35.30
2023-04-15T22:08:48.384Z,35.43
2023-04-15T22:11:28.857Z,35.44
2023-04-15T22:13:59.221Z,35.42
2023-04-15T22:16:28.810Z,35.38
2023-04-15T22:18:58.322Z,35.37
2023-04-15T22:21:27.528Z,35.46
2023-04-15T22:24:36.956Z,35.64
2023-04-15T22:26:48.548Z,35.82
2023-04-15T22:29:18.668Z,35.72
2023-04-15T22:31:48.107Z,35.70
2023-04-15T22:34:21.893Z,35.92
2023-04-15T22:36:52.717Z,35.90
2023-04-15T22:39:23.351Z,35.68
2023-04-15T22:41:52.937Z,35.66
2023-04-15T22:44:22.359Z,35.66
2023-04-15T22:46:52.376Z,35.86
2023-04-15T22:49:21.356Z,35.90
2023-04-15T22:51:50.470Z,35.72
2023-04-15T22:54:19.757Z,35.65
2023-04-15T22:56:48.860Z,35.65
2023-04-15T22:59:17.834Z,35.79
2023-04-15T23:01:49.615Z,35.75
2023-04-15T23:04:23.208Z,36.00
2023-04-15T23:06:54.076Z,36.21
2023-04-15T23:09:24.671Z,36.50
2023-04-15T23:11:55.569Z,36.58
2023-04-15T23:14:26.664Z,36.32
2023-04-15T23:16:57.601Z,36.50
2023-04-15T23:19:28.025Z,36.60
2023-04-15T23:21:59.173Z,36.48
2023-04-15T23:24:28.894Z,36.39
2023-04-15T23:27:00.840Z,36.39
2023-04-15T23:29:30.171Z,36.43
2023-04-15T23:31:59.536Z,36.38
2023-04-15T23:34:29.255Z,36.39
2023-04-15T23:36:58.857Z,36.64
2023-04-15T23:39:31.026Z,36.82
2023-04-15T23:42:02.274Z,36.82
2023-04-15T23:44:34.470Z,36.63
2023-04-15T23:47:03.873Z,36.54
2023-04-15T23:49:33.468Z,36.54
2023-04-15T23:52:03.073Z,36.73
2023-04-15T23:54:32.669Z,36.90
2023-04-15T23:57:04.620Z,36.98
2023-04-15T23:59:34.336Z,36.94
